Flight Track Log - Related Links

Times and Time Zones

All times are in EDT time to prevent confusion due to time zone crossing. See the TMC899 flight status page for this flight to view local times or setup timezone preferences in your user account.

Time Position Orientation Groundspeed Altitude Reporting Facility
EDT Latitude Longitude Course Direction KTS MPH feet Rate Location/Type
Sun 06:30:43 PM 42.4000 -87.9000 261° West 170 196 2,100  Level Chicago TRACON
Sun 06:31:35 PM 42.3944 -87.9475 261° West 200 230 3,700 2,579 Climbing Chicago Center
Sun 06:32:37 PM 42.3364 -87.9531 184° South 221 254 7,000 3,532 Climbing Chicago Center
Sun 06:33:39 PM 42.2581 -87.9636 186° South 267 307 11,000 3,581 Climbing Chicago Center
Sun 06:34:41 PM 42.1761 -87.9708 184° South 291 335 14,400 3,339 Climbing Chicago Center
Sun 06:35:43 PM 42.0875 -87.9753 182° South 315 362 17,900 3,194 Climbing Chicago Center
Sun 06:36:45 PM 41.9781 -87.9828 183° South 329 379 21,000 2,661 Climbing Chicago Center
Sun 06:37:47 PM 41.8786 -87.9939 185° South 355 409 23,400 2,274 Climbing Chicago Center
Sun 06:38:49 PM 41.7850 -88.0458 202° Southwest 363 418 25,700 2,274 Climbing Chicago Center
Sun 06:39:51 PM 41.6767 -88.0364 176° South 391 450 28,100 1,984 Climbing Chicago Center
Sun 06:40:53 PM 41.5622 -88.0175 173° South 407 468 29,800 1,742 Climbing Chicago Center
Sun 06:41:55 PM 41.4469 -88.0644 197° South 422 486 31,700 1,790 Climbing Chicago Center
Sun 06:42:57 PM 41.3317 -88.1258 202° Southwest 415 478 33,500 1,645 Climbing Chicago Center
Sun 06:43:59 PM 41.2278 -88.1825 202° Southwest 413 475 35,100 1,488 Climbing Chicago Center
Sun 06:45:02 PM 41.1206 -88.2406 202° Southwest 416 479 36,600 1,344 Climbing Chicago Center
Sun 06:46:04 PM 40.9922 -88.3106 202° Southwest 415 478 37,900 1,161 Climbing Chicago Center
Sun 06:47:06 PM 40.8819 -88.3686 202° Southwest 424 488 39,000 1,016 Climbing Chicago Center
Sun 06:48:08 PM 40.7739 -88.4253 202° Southwest 422 486 40,000 484 Climbing Chicago Center
Sun 06:49:10 PM 40.6639 -88.4836 202° Southwest 423 487 40,000  Level Chicago Center
Sun 06:50:12 PM 40.5511 -88.5428 202° Southwest 432 497 40,000  Level Chicago Center
Sun 06:51:14 PM 40.4408 -88.6006 202° Southwest 435 501 40,000  Level Chicago Center
Sun 06:52:16 PM 40.3117 -88.6767 204° Southwest 431 496 40,000  Level Chicago Center
Sun 06:53:18 PM 40.2303 -88.7761 223° Southwest 406 467 40,000  Level Chicago Center
Sun 06:54:21 PM 40.1508 -88.8783 225° Southwest 401 461 40,000  Level Chicago Center
Sun 06:55:23 PM 40.0714 -88.9792 224° Southwest 400 460 40,000  Level Chicago Center
Sun 06:56:25 PM 39.9903 -89.0819 224° Southwest 400 460 40,000  Level Chicago Center
Sun 06:57:15 PM 39.9261 -89.1622 224° Southwest 400 460 40,000  Level Kansas City Center
Sun 06:58:15 PM 39.8461 -89.2639 224° Southwest 400 460 40,000  Level Kansas City Center
Sun 06:59:19 PM 39.7647 -89.3664 224° Southwest 401 461 40,000  Level Kansas City Center
Sun 07:00:20 PM 39.6786 -89.4744 224° Southwest 401 461 40,000  Level Kansas City Center
Sun 07:01:23 PM 39.5978 -89.5750 224° Southwest 402 463 40,000  Level Kansas City Center
Sun 07:02:23 PM 39.5008 -89.6950 224° Southwest 402 463 40,000  Level Kansas City Center
Sun 07:03:25 PM 39.4200 -89.7950 224° Southwest 402 463 40,000  Level Kansas City Center
Sun 07:04:28 PM 39.3403 -89.8939 224° Southwest 402 463 40,000  Level Kansas City Center
Sun 07:05:32 PM 39.2608 -89.9928 224° Southwest 401 461 40,000  Level Kansas City Center
Sun 07:06:33 PM 39.1831 -90.0883 224° Southwest 393 452 40,000  Level Kansas City Center
Sun 07:07:34 PM 39.1044 -90.1858 224° Southwest 393 452 40,000  Level Kansas City Center
Sun 07:08:38 PM 39.0103 -90.3008 224° Southwest 393 452 40,000  Level Kansas City Center
Sun 07:09:38 PM 38.9333 -90.3922 223° Southwest 391 450 40,000  Level Kansas City Center
Sun 07:10:39 PM 38.8558 -90.4903 225° Southwest 388 447 40,000  Level Kansas City Center
Sun 07:11:43 PM 38.7925 -90.5978 233° Southwest 385 443 40,000  Level Kansas City Center
Sun 07:12:43 PM 38.7303 -90.7392 241° Southwest 394 453 40,000  Level Kansas City Center
Sun 07:13:47 PM 38.6725 -90.8511 237° Southwest 388 447 40,000  Level Kansas City Center
Sun 07:14:50 PM 38.6150 -90.9639 237° Southwest 386 444 40,000  Level Kansas City Center
Sun 07:15:51 PM 38.5567 -91.0775 237° Southwest 385 443 40,000  Level Kansas City Center
Sun 07:16:52 PM 38.4986 -91.1897 237° Southwest 384 442 40,000  Level Kansas City Center
Sun 07:17:56 PM 38.4289 -91.3258 237° Southwest 383 441 40,000  Level Kansas City Center
Sun 07:18:57 PM 38.3778 -91.4233 236° Southwest 383 441 40,000  Level Kansas City Center
Sun 07:19:58 PM 38.3069 -91.5594 236° Southwest 383 441 40,000  Level Kansas City Center
Sun 07:21:02 PM 38.2478 -91.6744 237° Southwest 384 442 40,000  Level Kansas City Center
Sun 07:22:02 PM 38.1878 -91.7864 236° Southwest 384 442 40,000  Level Kansas City Center
Sun 07:23:05 PM 38.1286 -91.9003 237° Southwest 385 443 40,000  Level Kansas City Center
Sun 07:24:06 PM 38.0689 -92.0125 236° Southwest 385 443 40,000  Level Kansas City Center
Sun 07:25:10 PM 38.0039 -92.1356 236° Southwest 384 442 40,000  Level Kansas City Center
Sun 07:26:10 PM 37.9453 -92.2472 236° Southwest 384 442 40,000  Level Kansas City Center
Sun 07:27:12 PM 37.8847 -92.3603 236° Southwest 385 443 40,000  Level Kansas City Center
Sun 07:28:16 PM 37.8250 -92.4719 236° Southwest 385 443 40,000  Level Kansas City Center
Sun 07:29:17 PM 37.7678 -92.5822 237° Southwest 382 440 40,000  Level Kansas City Center
Sun 07:30:19 PM 37.7156 -92.7233 245° Southwest 376 433 40,000  Level Kansas City Center
Sun 07:31:23 PM 37.6786 -92.8467 249° West 369 425 40,000  Level Kansas City Center
Sun 07:32:23 PM 37.6353 -92.9650 245° Southwest 369 425 40,000  Level Kansas City Center
Sun 07:33:27 PM 37.5914 -93.0811 245° Southwest 368 423 40,000  Level Kansas City Center
Sun 07:34:26 PM 37.5508 -93.1994 247° West 368 423 40,000  Level Kansas City Center
Sun 07:35:30 PM 37.5086 -93.3181 246° West 368 423 40,000  Level Kansas City Center
Sun 07:36:33 PM 37.4628 -93.4347 244° Southwest 368 423 40,000  Level Kansas City Center
Sun 07:37:33 PM 37.4108 -93.5792 246° West 372 428 40,000  Level Kansas City Center
Sun 07:38:37 PM 37.3661 -93.6989 245° Southwest 373 429 40,000  Level Kansas City Center
Sun 07:39:38 PM 37.3208 -93.8194 245° Southwest 376 433 40,000  Level Kansas City Center
Sun 07:40:38 PM 37.2756 -93.9406 245° Southwest 379 436 40,000  Level Kansas City Center
Sun 07:41:42 PM 37.2289 -94.0619 244° Southwest 383 441 40,000  Level Kansas City Center
Sun 07:42:45 PM 37.1831 -94.1886 246° West 384 442 40,000  Level Kansas City Center
Sun 07:43:46 PM 37.1353 -94.3106 244° Southwest 385 443 40,000  Level Kansas City Center
Sun 07:44:47 PM 37.0808 -94.4575 245° Southwest 385 443 40,000  Level Kansas City Center
Sun 07:45:51 PM 37.0328 -94.5786 244° Southwest 386 444 40,000  Level Kansas City Center
Sun 07:46:51 PM 36.9869 -94.7003 245° Southwest 386 444 40,000  Level Kansas City Center
Sun 07:47:53 PM 36.9408 -94.8203 244° Southwest 386 444 40,000 -190 Level Kansas City Center
Sun 07:48:57 PM 36.8953 -94.9386 244° Southwest 382 440 39,600 -484 Descending Kansas City Center
Sun 07:49:57 PM 36.8486 -95.0594 244° Southwest 383 441 39,000 -732 Descending Kansas City Center
Sun 07:51:00 PM 36.7928 -95.2036 244° Southwest 384 442 38,100 -756 Descending Kansas City Center
Sun 07:52:04 PM 36.7450 -95.3244 244° Southwest 386 444 37,400 -629 Descending Kansas City Center
Sun 07:53:04 PM 36.6981 -95.4447 244° Southwest 386 444 36,800 -677 Descending Kansas City Center
Sun 07:54:08 PM 36.6517 -95.5644 244° Southwest 386 444 36,000 -672 Descending Kansas City Center
Sun 07:55:09 PM 36.6031 -95.6861 244° Southwest 387 445 35,400 -694 Descending Kansas City Center
Sun 07:56:09 PM 36.5447 -95.8322 244° Southwest 397 457 34,600 -732 Descending Kansas City Center
Sun 07:57:12 PM 36.4944 -95.9567 243° Southwest 402 463 33,900 -667 Descending Kansas City Center
Sun 07:58:15 PM 36.4453 -96.0808 244° Southwest 402 463 33,200 -672 Descending Kansas City Center
Sun 07:59:17 PM 36.3953 -96.2053 244° Southwest 402 463 32,500 -677 Descending Kansas City Center
Sun 08:00:19 PM 36.3456 -96.3289 243° Southwest 402 463 31,800 -1,268 Descending Kansas City Center
Sun 08:01:20 PM 36.2950 -96.4517 243° Southwest 402 463 29,900 -2,352 Descending Kansas City Center
Sun 08:02:24 PM 36.2367 -96.5972 244° Southwest 398 458 26,900 -2,634 Descending Kansas City Center
Sun 08:03:23 PM 36.1892 -96.7117 243° Southwest 381 438 24,500 -2,293 Descending Kansas City Center
Sun 08:04:27 PM 36.1458 -96.8217 244° Southwest 361 415 22,200 -2,160 Descending Kansas City Center
Sun 08:05:28 PM 36.1011 -96.9281 243° Southwest 355 409 20,000 -2,129 Descending Kansas City Center
Sun 08:06:31 PM 36.0567 -97.0311 242° Southwest 350 403 17,800 -2,081 Descending Kansas City Center
Sun 08:07:32 PM 35.9978 -97.1131 228° Southwest 332 382 15,700 -2,226 Descending Kansas City Center
Sun 08:08:35 PM 35.9306 -97.2103 230° Southwest 316 364 13,200 -2,112 Descending Kansas City Center
Sun 08:09:37 PM 35.8756 -97.2889 229° Southwest 308 354 11,300 -1,680 Descending Kansas City Center
Sun 08:10:40 PM 35.8269 -97.3600 230° Southwest 277 319 9,700 -1,500 Descending Kansas City Center
Sun 08:11:41 PM 35.7825 -97.4247 230° Southwest 251 289 8,200 -1,475 Descending Kansas City Center
Sun 08:12:42 PM 35.7392 -97.4864 229° Southwest 245 282 6,700 -1,525 Descending Kansas City Center
Sun 08:13:43 PM 35.6992 -97.5442 230° Southwest 231 266 5,100 -1,476 Descending Kansas City Center
Sun 08:14:48 PM 35.6550 -97.6089 230° Southwest 213 245 3,600 -1,248 Descending Kansas City Center
Sun 08:15:24 PM 35.6289 -97.6378 222° Southwest 183 211 3,000 -951 Descending Fort Worth Center
Sun 08:16:10 PM 35.5983 -97.6458 192° South 158 182 2,300 -873 Descending Fort Worth Center
Sun 08:16:19 PM 35.5919 -97.6467 186° South 140 161 2,200 -677 Descending Fort Worth Center
Sun 08:17:12 PM 35.5572 -97.6453 178° South 141 162 1,600 -700 Descending Fort Worth Center
Sun 08:17:19 PM 35.5539 -97.6453 180° South 131 151 1,500 -857 Descending Fort Worth Center
Sun 08:19:00 PM 35.5333 -97.6333 219° Southwest  Level FlightAware Approximate

Login

Don't have an account? Register now (free) for customized features, flight alerts, and more!